createdAt,value
2017-11-22T00:01:17.543Z,11.87
2017-11-22T00:03:45.847Z,10.45
2017-11-22T00:06:14.169Z,11.37
2017-11-22T00:08:42.464Z,11.98
2017-11-22T00:11:10.815Z,11.43
2017-11-22T00:13:39.118Z,13.20
2017-11-22T00:16:07.424Z,11.88
2017-11-22T00:18:35.750Z,11.32
2017-11-22T00:21:04.045Z,14.33
2017-11-22T00:23:32.361Z,14.53
2017-11-22T00:26:00.658Z,11.20
2017-11-22T00:28:28.973Z,11.23
2017-11-22T00:30:57.274Z,11.60
2017-11-22T00:33:25.608Z,17.98
2017-11-22T00:35:53.904Z,11.83
2017-11-22T00:38:22.197Z,12.25
2017-11-22T00:40:50.519Z,18.32
2017-11-22T00:43:18.827Z,12.15
2017-11-22T00:45:47.178Z,14.24
2017-11-22T00:48:14.690Z,12.42
2017-11-22T00:50:43.005Z,11.55
2017-11-22T00:53:11.301Z,11.98
2017-11-22T00:55:39.635Z,12.45
2017-11-22T00:58:07.934Z,12.30
2017-11-22T01:00:36.241Z,11.60
2017-11-22T01:03:04.567Z,14.88
2017-11-22T01:05:33.441Z,12.55
2017-11-22T01:08:01.754Z,15.87
2017-11-22T01:10:30.054Z,12.48
2017-11-22T01:12:58.370Z,11.73
2017-11-22T01:15:26.667Z,13.07
2017-11-22T01:17:54.970Z,12.95
2017-11-22T01:20:23.286Z,11.47
2017-11-22T01:22:51.587Z,12.28
2017-11-22T01:25:19.910Z,12.17
2017-11-22T01:27:48.220Z,11.27
2017-11-22T01:30:16.545Z,11.15
2017-11-22T01:32:44.855Z,11.18
2017-11-22T01:35:13.189Z,11.38
2017-11-22T01:37:41.486Z,9.78
2017-11-22T01:40:09.786Z,11.28
2017-11-22T01:42:38.114Z,11.10
2017-11-22T01:45:06.421Z,11.07
2017-11-22T01:47:34.745Z,9.90
2017-11-22T01:50:03.038Z,9.87
2017-11-22T01:52:31.361Z,10.78
2017-11-22T01:54:59.665Z,11.17
2017-11-22T01:57:28.003Z,10.45
2017-11-22T01:59:56.301Z,10.93
2017-11-22T02:02:24.606Z,10.75
2017-11-22T02:04:52.930Z,10.14
2017-11-22T02:07:21.237Z,10.52
2017-11-22T02:09:49.560Z,10.10
2017-11-22T02:12:17.098Z,10.63
2017-11-22T02:14:45.417Z,17.08
2017-11-22T02:17:13.717Z,11.00
2017-11-22T02:19:42.062Z,10.75
2017-11-22T02:22:10.386Z,10.50
2017-11-22T02:24:38.684Z,11.23
2017-11-22T02:27:07.002Z,10.98
2017-11-22T02:29:35.311Z,11.45
2017-11-22T02:32:03.645Z,11.82
2017-11-22T02:34:31.958Z,11.40
2017-11-22T02:37:00.279Z,12.02
2017-11-22T02:39:28.585Z,11.23
2017-11-22T02:41:56.945Z,14.28
2017-11-22T02:44:25.250Z,10.58
2017-11-22T02:46:53.551Z,12.23
2017-11-22T02:49:21.895Z,11.32
2017-11-22T02:51:50.208Z,12.35
2017-11-22T02:54:18.543Z,11.92
2017-11-22T02:56:46.841Z,12.02
2017-11-22T02:59:15.170Z,11.08
2017-11-22T03:01:43.467Z,11.62
2017-11-22T03:04:11.818Z,11.87
2017-11-22T03:06:40.121Z,12.43
2017-11-22T03:09:08.418Z,12.42
2017-11-22T03:11:36.739Z,12.02
2017-11-22T03:14:05.043Z,11.57
2017-11-22T03:16:33.375Z,12.25
2017-11-22T03:19:01.677Z,11.58
2017-11-22T03:21:30.004Z,11.37
2017-11-22T03:23:58.304Z,11.45
2017-11-22T03:26:26.638Z,12.22
2017-11-22T03:28:54.929Z,11.77
2017-11-22T03:31:23.224Z,12.40
2017-11-22T03:33:51.557Z,11.40
2017-11-22T03:36:19.854Z,12.08
2017-11-22T03:38:48.174Z,12.75
2017-11-22T03:41:16.478Z,12.40
2017-11-22T03:43:44.798Z,10.73
2017-11-22T03:46:13.093Z,12.78
2017-11-22T03:48:41.418Z,11.63
2017-11-22T03:51:11.626Z,11.58
2017-11-22T03:53:45.637Z,12.73
2017-11-22T03:56:13.932Z,11.72
2017-11-22T03:58:42.237Z,11.95
2017-11-22T04:01:12.409Z,12.35
2017-11-22T04:03:43.653Z,11.78
2017-11-22T04:06:14.897Z,11.75
2017-11-22T04:08:43.197Z,11.98
2017-11-22T04:11:11.517Z,12.42
2017-11-22T04:13:39.811Z,12.48
2017-11-22T04:16:08.148Z,12.15
2017-11-22T04:18:36.452Z,12.07
2017-11-22T04:21:04.761Z,12.73
2017-11-22T04:23:33.097Z,11.65
2017-11-22T04:26:01.398Z,12.95
2017-11-22T04:28:29.718Z,14.10
2017-11-22T04:30:58.022Z,12.98
2017-11-22T04:33:26.362Z,13.03
2017-11-22T04:35:54.653Z,13.02
2017-11-22T04:38:22.953Z,13.90
2017-11-22T04:40:50.508Z,13.53
2017-11-22T04:43:18.819Z,13.42
2017-11-22T04:45:47.134Z,11.97
2017-11-22T04:48:15.435Z,14.22
2017-11-22T04:50:43.773Z,13.33
2017-11-22T04:53:12.074Z,14.00
2017-11-22T04:55:40.389Z,14.37
2017-11-22T04:58:08.717Z,13.35
2017-11-22T05:00:37.016Z,15.20
2017-11-22T05:03:05.340Z,13.48
2017-11-22T05:05:33.648Z,13.70
2017-11-22T05:08:01.974Z,14.50
2017-11-22T05:10:30.285Z,13.28
2017-11-22T05:12:58.625Z,14.20
2017-11-22T05:15:26.922Z,14.54
2017-11-22T05:17:55.213Z,14.53
2017-11-22T05:20:24.450Z,14.33
2017-11-22T05:22:52.741Z,14.22
2017-11-22T05:25:21.066Z,16.40
2017-11-22T05:27:49.986Z,15.43
2017-11-22T05:30:18.325Z,15.62
2017-11-22T05:32:46.621Z,14.17
2017-11-22T05:35:14.966Z,15.32
2017-11-22T05:37:43.292Z,14.85
2017-11-22T05:40:11.605Z,14.27
2017-11-22T05:42:39.929Z,14.48
2017-11-22T05:45:08.238Z,15.27
2017-11-22T05:47:36.569Z,14.68
2017-11-22T05:50:04.857Z,18.57
2017-11-22T05:52:33.186Z,14.96
2017-11-22T05:55:01.483Z,16.05
2017-11-22T05:57:29.793Z,15.97
2017-11-22T05:59:58.106Z,18.37
2017-11-22T06:02:26.404Z,17.28
2017-11-22T06:04:54.735Z,14.86
2017-11-22T06:07:23.030Z,15.04
2017-11-22T06:09:51.365Z,14.87
2017-11-22T06:12:19.678Z,15.96
2017-11-22T06:14:48.010Z,17.57
2017-11-22T06:17:16.318Z,18.32
2017-11-22T06:19:43.858Z,14.95
2017-11-22T06:22:12.183Z,18.08
2017-11-22T06:24:40.478Z,16.43
2017-11-22T06:27:08.798Z,19.95
2017-11-22T06:29:37.092Z,17.18
2017-11-22T06:32:05.424Z,17.07
2017-11-22T06:34:33.717Z,21.42
2017-11-22T06:37:02.053Z,19.52
2017-11-22T06:39:30.354Z,16.48
2017-11-22T06:41:58.654Z,26.25
2017-11-22T06:44:26.974Z,19.65
2017-11-22T06:46:55.273Z,22.70
2017-11-22T06:49:23.590Z,19.60
2017-11-22T06:51:51.889Z,17.13
2017-11-22T06:54:20.201Z,17.57
2017-11-22T06:56:48.506Z,18.62
2017-11-22T06:59:16.838Z,21.28
2017-11-22T07:01:50.729Z,16.30
2017-11-22T07:04:18.306Z,20.55
2017-11-22T07:06:46.614Z,18.63
2017-11-22T07:09:14.914Z,29.65
2017-11-22T07:11:43.243Z,18.35
2017-11-22T07:14:11.564Z,21.55
2017-11-22T07:16:45.522Z,22.25
2017-11-22T07:19:13.819Z,18.15
2017-11-22T07:21:42.152Z,17.70
2017-11-22T07:24:10.465Z,19.98
2017-11-22T07:26:38.790Z,19.38
2017-11-22T07:29:07.118Z,21.65
2017-11-22T07:31:35.430Z,18.67
2017-11-22T07:34:03.780Z,17.53
2017-11-22T07:36:37.794Z,17.20
2017-11-22T07:39:06.115Z,22.95
2017-11-22T07:41:34.421Z,17.05
2017-11-22T07:44:02.749Z,18.37
2017-11-22T07:46:31.037Z,15.42
2017-11-22T07:48:59.369Z,18.35
2017-11-22T07:51:33.414Z,16.30
2017-11-22T07:54:01.749Z,17.25
2017-11-22T07:56:30.054Z,17.43
2017-11-22T07:59:13.072Z,15.72
2017-11-22T08:01:41.377Z,15.98
2017-11-22T08:04:15.409Z,18.02
2017-11-22T08:06:43.716Z,15.72
2017-11-22T08:09:12.017Z,17.43
2017-11-22T08:11:40.342Z,15.85
2017-11-22T08:14:08.642Z,16.54
2017-11-22T08:16:36.962Z,15.88
2017-11-22T08:19:05.279Z,17.87
2017-11-22T08:21:33.611Z,14.42
2017-11-22T08:24:01.921Z,15.05
2017-11-22T08:26:30.258Z,19.70
2017-11-22T08:28:58.558Z,15.15
2017-11-22T08:31:26.860Z,14.53
2017-11-22T08:33:55.193Z,16.55
2017-11-22T08:36:23.498Z,16.93
2017-11-22T08:38:51.825Z,16.63
2017-11-22T08:41:20.121Z,16.12
2017-11-22T08:43:50.253Z,16.92
2017-11-22T08:46:18.554Z,15.60
2017-11-22T08:48:46.887Z,16.37
2017-11-22T08:51:15.194Z,17.15
2017-11-22T08:53:43.511Z,15.28
2017-11-22T08:56:17.579Z,14.50
2017-11-22T08:58:45.901Z,14.58
2017-11-22T09:01:14.197Z,15.07
2017-11-22T09:03:44.446Z,16.72
2017-11-22T09:06:18.443Z,14.60
2017-11-22T09:08:46.770Z,15.05
2017-11-22T09:11:15.071Z,13.72
2017-11-22T09:13:43.408Z,13.22
2017-11-22T09:16:11.709Z,13.92
2017-11-22T09:18:54.151Z,14.02
2017-11-22T09:21:22.453Z,14.30
2017-11-22T09:23:50.010Z,13.63
2017-11-22T09:26:18.330Z,13.54
2017-11-22T09:28:46.659Z,13.75
2017-11-22T09:31:20.545Z,12.93
2017-11-22T09:33:54.566Z,12.75
2017-11-22T09:36:23.705Z,13.70
2017-11-22T09:38:52.037Z,12.90
2017-11-22T09:41:20.354Z,11.76
2017-11-22T09:43:48.675Z,12.68
2017-11-22T09:46:16.985Z,13.98
2017-11-22T09:48:45.312Z,12.06
2017-11-22T09:51:13.622Z,13.08
2017-11-22T09:53:41.943Z,12.62
2017-11-22T09:56:10.247Z,12.30
2017-11-22T09:58:37.797Z,12.48
2017-11-22T10:01:06.117Z,12.88
2017-11-22T10:03:33.657Z,12.70
2017-11-22T10:06:01.973Z,12.00
2017-11-22T10:08:30.278Z,11.52
2017-11-22T10:10:58.612Z,12.34
2017-11-22T10:13:26.914Z,13.72
2017-11-22T10:15:55.229Z,10.74
2017-11-22T10:18:34.237Z,11.66
2017-11-22T10:21:02.573Z,10.74
2017-11-22T10:23:30.109Z,10.70
2017-11-22T10:25:58.432Z,11.58
2017-11-22T10:28:29.613Z,10.92
2017-11-22T10:30:57.925Z,10.08
2017-11-22T10:33:38.025Z,11.24
2017-11-22T10:36:06.350Z,10.34
2017-11-22T10:38:34.650Z,11.12
2017-11-22T10:41:02.970Z,11.10
2017-11-22T10:43:31.275Z,28.18
2017-11-22T10:45:59.586Z,25.80
2017-11-22T10:48:27.885Z,18.64
2017-11-22T10:50:56.204Z,11.60
2017-11-22T10:53:24.507Z,16.22
2017-11-22T10:55:52.829Z,11.16
2017-11-22T10:58:21.124Z,10.68
2017-11-22T11:00:49.456Z,11.06
2017-11-22T11:03:17.758Z,11.04
2017-11-22T11:05:46.081Z,10.18
2017-11-22T11:08:14.381Z,10.38
2017-11-22T11:10:42.693Z,10.46
2017-11-22T11:13:10.997Z,10.32
2017-11-22T11:15:39.327Z,10.10
2017-11-22T11:18:07.625Z,9.96
2017-11-22T11:20:35.191Z,9.66
2017-11-22T11:23:03.498Z,10.04
2017-11-22T11:25:31.812Z,9.88
2017-11-22T11:28:00.124Z,10.20
2017-11-22T11:30:28.449Z,9.88
2017-11-22T11:32:56.747Z,10.34
2017-11-22T11:35:37.026Z,10.62
2017-11-22T11:38:05.331Z,9.32
2017-11-22T11:40:33.650Z,9.20
2017-11-22T11:43:01.961Z,9.72
2017-11-22T11:45:30.275Z,8.78
2017-11-22T11:47:58.588Z,9.44
2017-11-22T11:50:26.902Z,9.58
2017-11-22T11:52:55.190Z,9.14
2017-11-22T11:55:23.513Z,8.44
2017-11-22T11:57:51.839Z,10.30
2017-11-22T12:00:20.157Z,8.42
2017-11-22T12:02:48.481Z,9.70
2017-11-22T12:05:16.773Z,9.80
2017-11-22T12:07:45.096Z,9.56
2017-11-22T12:10:13.393Z,10.60
2017-11-22T12:12:41.709Z,11.12
2017-11-22T12:15:10.014Z,11.60
2017-11-22T12:17:38.334Z,13.16
2017-11-22T12:20:06.642Z,10.86
2017-11-22T12:22:40.712Z,12.64
2017-11-22T12:25:09.014Z,12.34
2017-11-22T12:27:37.328Z,12.08
2017-11-22T12:30:05.638Z,13.92
2017-11-22T12:32:33.962Z,11.96
2017-11-22T12:35:02.268Z,10.96
2017-11-22T12:37:30.585Z,11.76
2017-11-22T12:39:58.894Z,11.14
2017-11-22T12:42:27.214Z,13.18
2017-11-22T12:44:55.506Z,10.22
2017-11-22T12:47:23.820Z,9.76
2017-11-22T12:49:52.118Z,11.52
2017-11-22T12:52:20.430Z,11.52
2017-11-22T12:54:48.734Z,9.36
2017-11-22T12:57:17.050Z,10.12
2017-11-22T12:59:45.353Z,9.70
2017-11-22T13:02:13.678Z,10.90
2017-11-22T13:04:41.975Z,9.96
2017-11-22T13:07:10.285Z,9.50
2017-11-22T13:09:38.588Z,10.22
2017-11-22T13:12:06.959Z,10.22
2017-11-22T13:14:35.274Z,11.22
2017-11-22T13:17:03.606Z,10.50
2017-11-22T13:19:31.919Z,11.28
2017-11-22T13:22:00.246Z,11.02
2017-11-22T13:24:28.550Z,10.98
2017-11-22T13:26:56.927Z,10.36
2017-11-22T13:29:25.254Z,11.14
2017-11-22T13:31:53.577Z,10.86
2017-11-22T13:34:21.874Z,10.62
2017-11-22T13:36:50.198Z,13.04
2017-11-22T13:39:18.493Z,10.22
2017-11-22T13:41:46.813Z,11.02
2017-11-22T13:44:15.109Z,10.46
2017-11-22T13:46:44.393Z,10.42
2017-11-22T13:49:12.718Z,11.26
2017-11-22T13:51:41.021Z,10.30
2017-11-22T13:54:09.348Z,11.32
2017-11-22T13:56:37.646Z,11.32
2017-11-22T13:59:05.970Z,11.68
2017-11-22T14:01:34.274Z,11.04
2017-11-22T14:04:02.604Z,10.84
2017-11-22T14:06:30.907Z,12.04
2017-11-22T14:08:59.233Z,12.04
2017-11-22T14:11:27.546Z,11.30
2017-11-22T14:13:55.863Z,11.78
2017-11-22T14:16:24.170Z,11.50
2017-11-22T14:18:52.495Z,11.40
2017-11-22T14:21:20.793Z,11.44
2017-11-22T14:23:49.118Z,11.76
2017-11-22T14:26:17.426Z,11.64
2017-11-22T14:28:45.754Z,11.28
2017-11-22T14:31:14.046Z,10.26
2017-11-22T14:33:41.717Z,10.92
2017-11-22T14:36:10.017Z,10.18
2017-11-22T14:38:38.340Z,10.88
2017-11-22T14:41:06.638Z,10.20
2017-11-22T14:43:34.952Z,9.62
2017-11-22T14:46:03.251Z,10.88
2017-11-22T14:48:31.573Z,10.72
2017-11-22T14:50:59.878Z,10.70
2017-11-22T14:53:28.200Z,12.52
2017-11-22T14:55:56.513Z,10.54
2017-11-22T14:58:24.834Z,10.54
2017-11-22T15:00:52.364Z,10.32
2017-11-22T15:03:20.669Z,11.56
2017-11-22T15:05:48.966Z,12.42
2017-11-22T15:08:17.278Z,10.94
2017-11-22T15:10:45.577Z,10.18
2017-11-22T15:13:13.898Z,11.78
2017-11-22T15:15:42.194Z,10.66
2017-11-22T15:18:10.511Z,11.04
2017-11-22T15:20:38.806Z,12.94
2017-11-22T15:23:07.117Z,11.16
2017-11-22T15:25:35.443Z,11.70
2017-11-22T15:28:03.738Z,10.12
2017-11-22T15:30:32.053Z,10.96
2017-11-22T15:33:00.351Z,10.60
2017-11-22T15:35:28.684Z,16.13
2017-11-22T15:37:56.991Z,20.78
2017-11-22T15:40:25.306Z,14.20
2017-11-22T15:42:53.608Z,14.44
2017-11-22T15:45:21.922Z,17.74
2017-11-22T15:47:50.226Z,14.68
2017-11-22T15:50:18.546Z,9.55
2017-11-22T15:52:46.833Z,11.30
2017-11-22T15:55:15.143Z,8.22
2017-11-22T15:57:43.446Z,11.45
2017-11-22T16:00:11.762Z,10.14
2017-11-22T16:02:40.050Z,8.62
2017-11-22T16:05:08.367Z,10.12
2017-11-22T16:07:36.662Z,9.00
2017-11-22T16:10:04.981Z,10.03
2017-11-22T16:12:33.273Z,8.92
2017-11-22T16:15:01.598Z,9.08
2017-11-22T16:17:29.877Z,7.84
2017-11-22T16:19:58.194Z,12.94
2017-11-22T16:22:25.733Z,9.02
2017-11-22T16:24:54.051Z,8.64
2017-11-22T16:27:22.349Z,10.07
2017-11-22T16:29:50.662Z,9.40
2017-11-22T16:32:18.962Z,10.28
2017-11-22T16:34:47.279Z,10.46
2017-11-22T16:37:15.565Z,9.20
2017-11-22T16:39:43.896Z,11.00
2017-11-22T16:42:12.185Z,9.82
2017-11-22T16:44:40.501Z,13.52
2017-11-22T16:47:08.805Z,10.12
2017-11-22T16:49:37.127Z,8.82
2017-11-22T16:52:05.418Z,8.82
2017-11-22T16:54:33.742Z,10.76
2017-11-22T16:57:02.054Z,9.62
2017-11-22T16:59:30.350Z,10.12
2017-11-22T17:01:58.663Z,9.65
2017-11-22T17:04:26.963Z,10.76
2017-11-22T17:06:55.281Z,8.30
2017-11-22T17:09:23.577Z,8.70
2017-11-22T17:11:51.897Z,9.98
2017-11-22T17:14:20.184Z,9.40
2017-11-22T17:16:48.510Z,9.63
2017-11-22T17:19:16.804Z,9.32
2017-11-22T17:21:45.127Z,10.92
2017-11-22T17:24:13.426Z,11.20
2017-11-22T17:26:41.742Z,10.92
2017-11-22T17:29:10.038Z,11.27
2017-11-22T17:31:38.353Z,9.45
2017-11-22T17:34:06.645Z,9.42
2017-11-22T17:36:34.965Z,10.86
2017-11-22T17:39:03.266Z,10.57
2017-11-22T17:41:31.667Z,10.22
2017-11-22T17:43:59.975Z,10.73
2017-11-22T17:46:28.289Z,9.78
2017-11-22T17:48:56.591Z,8.78
2017-11-22T17:51:24.910Z,7.98
2017-11-22T17:53:53.205Z,9.10
2017-11-22T17:56:21.524Z,8.68
2017-11-22T17:58:49.826Z,7.80
2017-11-22T18:01:17.370Z,8.82
2017-11-22T18:03:45.673Z,8.28
2017-11-22T18:06:13.990Z,8.62
2017-11-22T18:08:42.289Z,8.43
2017-11-22T18:11:10.605Z,8.40
2017-11-22T18:13:38.910Z,8.33
2017-11-22T18:16:07.234Z,7.67
2017-11-22T18:18:35.534Z,7.40
2017-11-22T18:21:03.086Z,9.95
2017-11-22T18:23:31.385Z,7.55
2017-11-22T18:25:59.706Z,7.16
2017-11-22T18:28:28.009Z,8.40
2017-11-22T18:30:56.350Z,8.20
2017-11-22T18:33:24.656Z,8.10
2017-11-22T18:35:52.958Z,7.68
2017-11-22T18:38:21.285Z,8.67
2017-11-22T18:40:49.583Z,7.95
2017-11-22T18:43:17.906Z,7.48
2017-11-22T18:45:46.202Z,7.30
2017-11-22T18:48:14.546Z,7.52
2017-11-22T18:50:42.841Z,9.45
2017-11-22T18:53:11.162Z,14.62
2017-11-22T18:55:39.456Z,8.92
2017-11-22T18:58:07.769Z,9.15
2017-11-22T19:00:36.074Z,9.77
2017-11-22T19:03:04.403Z,9.93
2017-11-22T19:05:32.729Z,12.05
2017-11-22T19:08:01.051Z,15.67
2017-11-22T19:10:29.354Z,10.95
2017-11-22T19:12:57.673Z,12.73
2017-11-22T19:15:25.971Z,12.77
2017-11-22T19:17:54.296Z,17.07
2017-11-22T19:20:22.609Z,12.90
2017-11-22T19:22:50.930Z,13.62
2017-11-22T19:25:19.230Z,11.10
2017-11-22T19:27:47.574Z,9.90
2017-11-22T19:30:15.892Z,7.90
2017-11-22T19:32:44.228Z,8.60
2017-11-22T19:35:12.549Z,11.78
2017-11-22T19:37:40.875Z,9.45
2017-11-22T19:40:09.169Z,8.77
2017-11-22T19:42:37.481Z,9.27
2017-11-22T19:45:05.775Z,8.82
2017-11-22T19:47:34.098Z,8.62
2017-11-22T19:50:02.397Z,9.02
2017-11-22T19:52:30.714Z,8.73
2017-11-22T19:54:59.022Z,8.53
2017-11-22T19:57:27.338Z,8.48
2017-11-22T19:59:55.683Z,7.95
2017-11-22T20:02:24.024Z,8.13
2017-11-22T20:04:52.318Z,7.75
2017-11-22T20:07:32.573Z,9.12
2017-11-22T20:10:00.878Z,12.57
2017-11-22T20:12:29.160Z,7.52
2017-11-22T20:14:57.469Z,9.03
2017-11-22T20:17:25.766Z,9.77
2017-11-22T20:19:54.102Z,7.32
2017-11-22T20:22:22.401Z,7.25
2017-11-22T20:24:50.710Z,6.48
2017-11-22T20:27:19.017Z,7.90
2017-11-22T20:29:46.601Z,7.95
2017-11-22T20:32:14.906Z,6.50
2017-11-22T20:34:43.269Z,6.60
2017-11-22T20:37:11.583Z,17.77
2017-11-22T20:39:39.907Z,11.18
2017-11-22T20:42:08.209Z,35.28
2017-11-22T20:44:36.530Z,23.78
2017-11-22T20:47:04.860Z,18.67
2017-11-22T20:49:33.213Z,31.28
2017-11-22T20:52:01.511Z,27.18
2017-11-22T20:54:29.843Z,12.32
2017-11-22T20:56:58.147Z,14.74
2017-11-22T20:59:26.581Z,6.42
2017-11-22T21:01:54.886Z,7.00
2017-11-22T21:04:23.188Z,6.77
2017-11-22T21:06:51.511Z,7.12
2017-11-22T21:09:19.819Z,7.76
2017-11-22T21:11:48.134Z,8.08
2017-11-22T21:14:16.426Z,7.24
2017-11-22T21:16:44.738Z,5.98
2017-11-22T21:19:13.033Z,7.12
2017-11-22T21:21:41.342Z,6.20
2017-11-22T21:24:09.625Z,5.86
2017-11-22T21:26:37.937Z,6.10
2017-11-22T21:29:06.226Z,5.96
2017-11-22T21:31:34.549Z,8.22
2017-11-22T21:34:02.859Z,7.68
2017-11-22T21:36:31.184Z,27.18
2017-11-22T21:38:58.713Z,35.28
2017-11-22T21:41:27.006Z,14.00
2017-11-22T21:43:55.330Z,9.06
2017-11-22T21:46:23.621Z,15.94
2017-11-22T21:48:51.935Z,9.76
2017-11-22T21:51:20.243Z,14.27
2017-11-22T21:53:48.553Z,18.12
2017-11-22T21:56:16.849Z,10.18
2017-11-22T21:58:45.168Z,14.54
2017-11-22T22:01:13.463Z,7.15
2017-11-22T22:03:41.781Z,7.12
2017-11-22T22:06:10.078Z,6.85
2017-11-22T22:08:38.394Z,6.58
2017-11-22T22:11:06.685Z,6.42
2017-11-22T22:13:34.246Z,6.87
2017-11-22T22:16:02.547Z,7.75
2017-11-22T22:18:30.833Z,6.73
2017-11-22T22:20:59.150Z,8.12
2017-11-22T22:23:27.447Z,6.82
2017-11-22T22:25:55.757Z,7.38
2017-11-22T22:28:24.057Z,6.78
2017-11-22T22:30:52.378Z,8.78
2017-11-22T22:33:20.675Z,7.97
2017-11-22T22:35:48.995Z,7.43
2017-11-22T22:38:17.290Z,7.62
2017-11-22T22:40:45.626Z,7.78
2017-11-22T22:43:13.921Z,8.90
2017-11-22T22:45:42.217Z,15.98
2017-11-22T22:48:10.545Z,23.47
2017-11-22T22:50:38.846Z,8.05
2017-11-22T22:53:07.165Z,7.50
2017-11-22T22:55:35.473Z,7.98
2017-11-22T22:58:03.786Z,6.93
2017-11-22T23:00:32.084Z,6.92
2017-11-22T23:03:00.402Z,7.62
2017-11-22T23:05:28.693Z,7.43
2017-11-22T23:07:57.011Z,12.33
2017-11-22T23:10:25.305Z,8.83
2017-11-22T23:12:53.638Z,7.57
2017-11-22T23:15:21.158Z,7.67
2017-11-22T23:17:49.457Z,7.80
2017-11-22T23:20:17.009Z,7.20
2017-11-22T23:22:45.306Z,10.45
2017-11-22T23:25:13.622Z,10.50
2017-11-22T23:27:41.913Z,9.53
2017-11-22T23:30:10.234Z,7.95
2017-11-22T23:32:38.523Z,10.48
2017-11-22T23:35:06.849Z,8.53
2017-11-22T23:37:35.143Z,9.60
2017-11-22T23:40:03.474Z,7.97
2017-11-22T23:42:31.761Z,8.33
2017-11-22T23:45:00.054Z,7.28
2017-11-22T23:47:28.366Z,7.82
2017-11-22T23:49:56.654Z,7.83
2017-11-22T23:52:24.961Z,7.32
2017-11-22T23:54:53.268Z,8.72
2017-11-22T23:57:21.589Z,7.07
2017-11-22T23:59:49.892Z,8.48
